sensor_id;sensor_type;location;lat;lon;timestamp;P1;durP1;ratioP1;P2;durP2;ratioP2
39782;SDS011;25462;51.164;17.100;2023-01-10T00:02:58;43.30;;;23.00;;
39782;SDS011;25462;51.164;17.100;2023-01-10T00:08:04;36.80;;;20.40;;
39782;SDS011;25462;51.164;17.100;2023-01-10T00:13:18;40.50;;;20.80;;
39782;SDS011;25462;51.164;17.100;2023-01-10T00:18:27;37.60;;;20.80;;
39782;SDS011;25462;51.164;17.100;2023-01-10T00:23:31;38.70;;;21.70;;
39782;SDS011;25462;51.164;17.100;2023-01-10T00:28:36;39.10;;;20.90;;
39782;SDS011;25462;51.164;17.100;2023-01-10T00:33:42;37.20;;;22.50;;
39782;SDS011;25462;51.164;17.100;2023-01-10T00:38:46;35.60;;;20.90;;
39782;SDS011;25462;51.164;17.100;2023-01-10T00:43:49;36.50;;;21.50;;
39782;SDS011;25462;51.164;17.100;2023-01-10T00:48:59;44.50;;;24.10;;
39782;SDS011;25462;51.164;17.100;2023-01-10T00:54:07;47.40;;;25.10;;
39782;SDS011;25462;51.164;17.100;2023-01-10T00:59:12;45.50;;;24.40;;
39782;SDS011;25462;51.164;17.100;2023-01-10T01:04:16;52.10;;;26.10;;
39782;SDS011;25462;51.164;17.100;2023-01-10T01:09:20;50.90;;;26.90;;
39782;SDS011;25462;51.164;17.100;2023-01-10T01:14:25;58.20;;;29.10;;
39782;SDS011;25462;51.164;17.100;2023-01-10T01:19:29;54.50;;;31.50;;
39782;SDS011;25462;51.164;17.100;2023-01-10T01:24:33;54.40;;;29.10;;
39782;SDS011;25462;51.164;17.100;2023-01-10T01:29:39;51.30;;;27.30;;
39782;SDS011;25462;51.164;17.100;2023-01-10T01:34:46;50.80;;;27.10;;
39782;SDS011;25462;51.164;17.100;2023-01-10T01:39:50;52.30;;;28.00;;
39782;SDS011;25462;51.164;17.100;2023-01-10T01:56:34;46.30;;;24.30;;
39782;SDS011;25462;51.164;17.100;2023-01-10T02:01:48;43.90;;;26.10;;
39782;SDS011;25462;51.164;17.100;2023-01-10T02:06:54;44.80;;;26.10;;
39782;SDS011;25462;51.164;17.100;2023-01-10T02:11:59;45.50;;;25.60;;
39782;SDS011;25462;51.164;17.100;2023-01-10T02:17:04;38.60;;;20.70;;
39782;SDS011;25462;51.164;17.100;2023-01-10T02:49:22;47.90;;;27.00;;
39782;SDS011;25462;51.164;17.100;2023-01-10T02:54:26;46.10;;;27.30;;
39782;SDS011;25462;51.164;17.100;2023-01-10T02:59:41;43.70;;;27.20;;
39782;SDS011;25462;51.164;17.100;2023-01-10T03:05:09;47.00;;;26.20;;
39782;SDS011;25462;51.164;17.100;2023-01-10T03:10:28;45.30;;;27.60;;
39782;SDS011;25462;51.164;17.100;2023-01-10T03:15:35;57.10;;;31.70;;
39782;SDS011;25462;51.164;17.100;2023-01-10T03:20:41;54.20;;;30.00;;
39782;SDS011;25462;51.164;17.100;2023-01-10T03:25:47;46.00;;;26.70;;
39782;SDS011;25462;51.164;17.100;2023-01-10T03:31:02;48.10;;;28.80;;
39782;SDS011;25462;51.164;17.100;2023-01-10T03:41:43;43.80;;;26.20;;
39782;SDS011;25462;51.164;17.100;2023-01-10T03:46:58;45.60;;;25.80;;
39782;SDS011;25462;51.164;17.100;2023-01-10T03:52:18;49.00;;;27.00;;
39782;SDS011;25462;51.164;17.100;2023-01-10T03:57:22;43.00;;;24.60;;
39782;SDS011;25462;51.164;17.100;2023-01-10T04:02:29;44.20;;;26.00;;
39782;SDS011;25462;51.164;17.100;2023-01-10T04:07:35;39.60;;;22.30;;
39782;SDS011;25462;51.164;17.100;2023-01-10T04:12:40;43.10;;;21.90;;
39782;SDS011;25462;51.164;17.100;2023-01-10T04:17:44;34.30;;;18.60;;
39782;SDS011;25462;51.164;17.100;2023-01-10T04:22:48;27.10;;;15.40;;
39782;SDS011;25462;51.164;17.100;2023-01-10T04:27:56;27.50;;;15.20;;
39782;SDS011;25462;51.164;17.100;2023-01-10T04:33:00;24.90;;;14.00;;
39782;SDS011;25462;51.164;17.100;2023-01-10T04:38:04;23.20;;;13.30;;
39782;SDS011;25462;51.164;17.100;2023-01-10T04:43:11;20.10;;;12.30;;
39782;SDS011;25462;51.164;17.100;2023-01-10T04:48:14;24.30;;;13.10;;
39782;SDS011;25462;51.164;17.100;2023-01-10T04:53:19;17.80;;;11.20;;
39782;SDS011;25462;51.164;17.100;2023-01-10T04:58:23;20.20;;;11.60;;
39782;SDS011;25462;51.164;17.100;2023-01-10T05:03:30;22.00;;;10.70;;
39782;SDS011;25462;51.164;17.100;2023-01-10T05:08:34;21.60;;;12.40;;
39782;SDS011;25462;51.164;17.100;2023-01-10T05:13:42;17.60;;;10.20;;
39782;SDS011;25462;51.164;17.100;2023-01-10T05:18:49;17.60;;;9.60;;
39782;SDS011;25462;51.164;17.100;2023-01-10T05:23:53;14.10;;;7.70;;
39782;SDS011;25462;51.164;17.100;2023-01-10T05:28:57;11.50;;;7.40;;
39782;SDS011;25462;51.164;17.100;2023-01-10T05:34:01;15.20;;;7.40;;
39782;SDS011;25462;51.164;17.100;2023-01-10T05:39:04;11.00;;;6.40;;
39782;SDS011;25462;51.164;17.100;2023-01-10T05:44:08;11.10;;;5.50;;
39782;SDS011;25462;51.164;17.100;2023-01-10T05:49:12;9.10;;;4.70;;
39782;SDS011;25462;51.164;17.100;2023-01-10T05:54:17;11.40;;;5.70;;
39782;SDS011;25462;51.164;17.100;2023-01-10T05:59:21;10.70;;;5.50;;
39782;SDS011;25462;51.164;17.100;2023-01-10T06:04:32;9.10;;;4.70;;
39782;SDS011;25462;51.164;17.100;2023-01-10T06:09:38;8.20;;;5.60;;
39782;SDS011;25462;51.164;17.100;2023-01-10T06:14:42;9.50;;;5.10;;
39782;SDS011;25462;51.164;17.100;2023-01-10T06:19:47;10.30;;;5.40;;
39782;SDS011;25462;51.164;17.100;2023-01-10T06:24:54;9.20;;;5.60;;
39782;SDS011;25462;51.164;17.100;2023-01-10T06:29:59;9.10;;;5.50;;
39782;SDS011;25462;51.164;17.100;2023-01-10T06:35:06;12.00;;;5.30;;
39782;SDS011;25462;51.164;17.100;2023-01-10T06:40:12;9.60;;;5.50;;
39782;SDS011;25462;51.164;17.100;2023-01-10T06:45:16;9.00;;;5.10;;
39782;SDS011;25462;51.164;17.100;2023-01-10T06:50:22;9.00;;;5.90;;
39782;SDS011;25462;51.164;17.100;2023-01-10T06:55:26;9.90;;;5.20;;
39782;SDS011;25462;51.164;17.100;2023-01-10T07:00:31;12.20;;;5.70;;
39782;SDS011;25462;51.164;17.100;2023-01-10T07:05:35;11.40;;;5.60;;
39782;SDS011;25462;51.164;17.100;2023-01-10T07:10:40;7.90;;;5.10;;
39782;SDS011;25462;51.164;17.100;2023-01-10T07:15:45;11.70;;;6.10;;
39782;SDS011;25462;51.164;17.100;2023-01-10T07:20:49;10.10;;;6.30;;
39782;SDS011;25462;51.164;17.100;2023-01-10T07:25:53;9.60;;;6.20;;
39782;SDS011;25462;51.164;17.100;2023-01-10T07:30:57;9.90;;;5.70;;
39782;SDS011;25462;51.164;17.100;2023-01-10T07:36:04;14.90;;;6.00;;
39782;SDS011;25462;51.164;17.100;2023-01-10T07:41:08;9.50;;;6.20;;
39782;SDS011;25462;51.164;17.100;2023-01-10T07:46:15;12.60;;;6.20;;
39782;SDS011;25462;51.164;17.100;2023-01-10T07:51:20;9.60;;;6.10;;
39782;SDS011;25462;51.164;17.100;2023-01-10T07:56:24;9.90;;;5.90;;
39782;SDS011;25462;51.164;17.100;2023-01-10T08:01:28;13.00;;;5.40;;
39782;SDS011;25462;51.164;17.100;2023-01-10T08:06:32;12.70;;;6.10;;
39782;SDS011;25462;51.164;17.100;2023-01-10T08:11:37;12.80;;;7.20;;
39782;SDS011;25462;51.164;17.100;2023-01-10T08:16:44;10.50;;;6.20;;
39782;SDS011;25462;51.164;17.100;2023-01-10T08:21:50;10.00;;;6.30;;
39782;SDS011;25462;51.164;17.100;2023-01-10T08:26:56;9.10;;;5.00;;
39782;SDS011;25462;51.164;17.100;2023-01-10T08:32:01;11.10;;;5.90;;
39782;SDS011;25462;51.164;17.100;2023-01-10T08:37:05;10.50;;;5.50;;
39782;SDS011;25462;51.164;17.100;2023-01-10T08:42:12;11.20;;;5.90;;
39782;SDS011;25462;51.164;17.100;2023-01-10T08:47:17;10.20;;;6.00;;
39782;SDS011;25462;51.164;17.100;2023-01-10T08:52:23;8.10;;;5.70;;
39782;SDS011;25462;51.164;17.100;2023-01-10T08:57:26;11.40;;;6.30;;
39782;SDS011;25462;51.164;17.100;2023-01-10T09:02:30;11.10;;;6.20;;
39782;SDS011;25462;51.164;17.100;2023-01-10T09:07:39;14.80;;;6.40;;
39782;SDS011;25462;51.164;17.100;2023-01-10T09:12:44;11.40;;;5.80;;
39782;SDS011;25462;51.164;17.100;2023-01-10T09:17:59;10.50;;;5.80;;
39782;SDS011;25462;51.164;17.100;2023-01-10T09:23:07;8.40;;;5.10;;
39782;SDS011;25462;51.164;17.100;2023-01-10T09:28:13;9.10;;;4.60;;
39782;SDS011;25462;51.164;17.100;2023-01-10T09:33:19;8.10;;;4.40;;
39782;SDS011;25462;51.164;17.100;2023-01-10T09:38:23;9.00;;;4.60;;
39782;SDS011;25462;51.164;17.100;2023-01-10T09:54:05;9.60;;;4.60;;
39782;SDS011;25462;51.164;17.100;2023-01-10T09:59:26;9.70;;;4.90;;
39782;SDS011;25462;51.164;17.100;2023-01-10T10:04:35;7.30;;;4.20;;
39782;SDS011;25462;51.164;17.100;2023-01-10T10:09:43;13.20;;;5.30;;
39782;SDS011;25462;51.164;17.100;2023-01-10T10:15:01;9.50;;;4.60;;
39782;SDS011;25462;51.164;17.100;2023-01-10T10:26:45;9.60;;;5.20;;
39782;SDS011;25462;51.164;17.100;2023-01-10T10:32:21;11.80;;;5.60;;
39782;SDS011;25462;51.164;17.100;2023-01-10T10:37:47;13.10;;;5.50;;
39782;SDS011;25462;51.164;17.100;2023-01-10T10:42:54;10.30;;;5.90;;
39782;SDS011;25462;51.164;17.100;2023-01-10T10:48:01;10.00;;;5.70;;
39782;SDS011;25462;51.164;17.100;2023-01-10T10:53:31;11.10;;;5.50;;
39782;SDS011;25462;51.164;17.100;2023-01-10T10:58:37;7.80;;;5.10;;
39782;SDS011;25462;51.164;17.100;2023-01-10T11:03:43;10.20;;;5.60;;
39782;SDS011;25462;51.164;17.100;2023-01-10T11:09:01;11.60;;;5.40;;
39782;SDS011;25462;51.164;17.100;2023-01-10T11:14:07;8.70;;;5.90;;
39782;SDS011;25462;51.164;17.100;2023-01-10T11:19:22;9.60;;;5.90;;
39782;SDS011;25462;51.164;17.100;2023-01-10T11:24:31;14.10;;;6.00;;
39782;SDS011;25462;51.164;17.100;2023-01-10T11:29:43;10.70;;;5.90;;
39782;SDS011;25462;51.164;17.100;2023-01-10T11:34:54;10.70;;;5.50;;
39782;SDS011;25462;51.164;17.100;2023-01-10T11:40:24;12.50;;;5.30;;
39782;SDS011;25462;51.164;17.100;2023-01-10T11:45:31;9.00;;;5.30;;
39782;SDS011;25462;51.164;17.100;2023-01-10T11:50:38;11.60;;;5.80;;
39782;SDS011;25462;51.164;17.100;2023-01-10T11:55:51;14.00;;;5.50;;
39782;SDS011;25462;51.164;17.100;2023-01-10T12:00:57;15.50;;;5.70;;
39782;SDS011;25462;51.164;17.100;2023-01-10T12:16:41;10.10;;;5.00;;
39782;SDS011;25462;51.164;17.100;2023-01-10T12:21:45;13.10;;;5.30;;
39782;SDS011;25462;51.164;17.100;2023-01-10T12:26:51;9.90;;;6.00;;
39782;SDS011;25462;51.164;17.100;2023-01-10T12:31:56;13.20;;;5.80;;
39782;SDS011;25462;51.164;17.100;2023-01-10T12:37:11;10.60;;;5.40;;
39782;SDS011;25462;51.164;17.100;2023-01-10T12:42:20;11.50;;;5.60;;
39782;SDS011;25462;51.164;17.100;2023-01-10T12:58:18;10.70;;;4.90;;
39782;SDS011;25462;51.164;17.100;2023-01-10T13:03:26;13.30;;;6.60;;
39782;SDS011;25462;51.164;17.100;2023-01-10T13:08:35;12.80;;;6.30;;
39782;SDS011;25462;51.164;17.100;2023-01-10T13:13:42;10.50;;;5.80;;
39782;SDS011;25462;51.164;17.100;2023-01-10T13:24:33;8.60;;;4.20;;
39782;SDS011;25462;51.164;17.100;2023-01-10T13:29:39;13.30;;;5.50;;
39782;SDS011;25462;51.164;17.100;2023-01-10T13:34:44;13.20;;;6.40;;
39782;SDS011;25462;51.164;17.100;2023-01-10T13:39:58;13.70;;;6.50;;
39782;SDS011;25462;51.164;17.100;2023-01-10T14:01:35;16.00;;;7.90;;
39782;SDS011;25462;51.164;17.100;2023-01-10T14:07:04;18.20;;;8.10;;
39782;SDS011;25462;51.164;17.100;2023-01-10T14:17:24;17.00;;;8.70;;
39782;SDS011;25462;51.164;17.100;2023-01-10T14:22:32;19.90;;;9.00;;
39782;SDS011;25462;51.164;17.100;2023-01-10T14:27:45;16.10;;;9.10;;
39782;SDS011;25462;51.164;17.100;2023-01-10T14:32:52;16.30;;;7.80;;
39782;SDS011;25462;51.164;17.100;2023-01-10T14:38:00;22.80;;;9.00;;
39782;SDS011;25462;51.164;17.100;2023-01-10T14:43:10;23.70;;;9.30;;
39782;SDS011;25462;51.164;17.100;2023-01-10T14:48:21;21.30;;;10.90;;
39782;SDS011;25462;51.164;17.100;2023-01-10T14:53:32;19.90;;;10.70;;
39782;SDS011;25462;51.164;17.100;2023-01-10T14:58:36;12.10;;;5.90;;
39782;SDS011;25462;51.164;17.100;2023-01-10T15:03:46;7.50;;;3.40;;
39782;SDS011;25462;51.164;17.100;2023-01-10T15:08:57;12.40;;;5.60;;
39782;SDS011;25462;51.164;17.100;2023-01-10T15:14:04;13.30;;;6.20;;
39782;SDS011;25462;51.164;17.100;2023-01-10T15:19:19;12.40;;;6.20;;
39782;SDS011;25462;51.164;17.100;2023-01-10T15:29:37;18.60;;;9.70;;
39782;SDS011;25462;51.164;17.100;2023-01-10T15:34:48;20.70;;;10.10;;
39782;SDS011;25462;51.164;17.100;2023-01-10T15:39:53;15.90;;;9.20;;
39782;SDS011;25462;51.164;17.100;2023-01-10T15:45:02;20.90;;;10.70;;
39782;SDS011;25462;51.164;17.100;2023-01-10T15:50:51;24.20;;;11.50;;
39782;SDS011;25462;51.164;17.100;2023-01-10T15:56:02;25.10;;;13.50;;
39782;SDS011;25462;51.164;17.100;2023-01-10T16:01:13;28.00;;;15.50;;
39782;SDS011;25462;51.164;17.100;2023-01-10T16:06:21;29.30;;;14.00;;
39782;SDS011;25462;51.164;17.100;2023-01-10T16:17:12;31.00;;;15.80;;
39782;SDS011;25462;51.164;17.100;2023-01-10T16:22:16;26.90;;;16.50;;
39782;SDS011;25462;51.164;17.100;2023-01-10T16:27:21;32.70;;;15.50;;
39782;SDS011;25462;51.164;17.100;2023-01-10T16:32:25;31.50;;;16.20;;
39782;SDS011;25462;51.164;17.100;2023-01-10T16:37:29;27.40;;;14.60;;
39782;SDS011;25462;51.164;17.100;2023-01-10T16:42:33;37.60;;;17.80;;
39782;SDS011;25462;51.164;17.100;2023-01-10T16:47:55;32.30;;;18.90;;
39782;SDS011;25462;51.164;17.100;2023-01-10T16:52:59;30.10;;;17.00;;
39782;SDS011;25462;51.164;17.100;2023-01-10T16:58:03;27.70;;;15.80;;
39782;SDS011;25462;51.164;17.100;2023-01-10T17:03:09;22.50;;;13.50;;
39782;SDS011;25462;51.164;17.100;2023-01-10T17:08:18;26.30;;;15.40;;
39782;SDS011;25462;51.164;17.100;2023-01-10T17:13:26;27.70;;;15.50;;
39782;SDS011;25462;51.164;17.100;2023-01-10T17:18:36;32.50;;;16.20;;
39782;SDS011;25462;51.164;17.100;2023-01-10T17:23:41;43.30;;;27.20;;
39782;SDS011;25462;51.164;17.100;2023-01-10T17:28:46;54.70;;;33.20;;
39782;SDS011;25462;51.164;17.100;2023-01-10T17:33:52;39.70;;;22.00;;
39782;SDS011;25462;51.164;17.100;2023-01-10T17:38:57;27.50;;;15.40;;
39782;SDS011;25462;51.164;17.100;2023-01-10T17:44:01;27.10;;;17.70;;
39782;SDS011;25462;51.164;17.100;2023-01-10T17:49:05;35.50;;;18.80;;
39782;SDS011;25462;51.164;17.100;2023-01-10T17:54:10;30.30;;;17.20;;
39782;SDS011;25462;51.164;17.100;2023-01-10T17:59:13;28.60;;;16.20;;
39782;SDS011;25462;51.164;17.100;2023-01-10T18:04:18;26.90;;;14.20;;
39782;SDS011;25462;51.164;17.100;2023-01-10T18:09:22;27.90;;;14.30;;
39782;SDS011;25462;51.164;17.100;2023-01-10T18:14:26;32.20;;;18.90;;
39782;SDS011;25462;51.164;17.100;2023-01-10T18:19:39;22.80;;;14.40;;
39782;SDS011;25462;51.164;17.100;2023-01-10T18:24:44;22.20;;;13.80;;
39782;SDS011;25462;51.164;17.100;2023-01-10T18:29:49;27.90;;;13.20;;
39782;SDS011;25462;51.164;17.100;2023-01-10T18:34:54;20.80;;;12.00;;
39782;SDS011;25462;51.164;17.100;2023-01-10T18:39:58;21.40;;;11.50;;
39782;SDS011;25462;51.164;17.100;2023-01-10T18:45:09;19.30;;;11.50;;
39782;SDS011;25462;51.164;17.100;2023-01-10T18:50:16;19.40;;;9.50;;
39782;SDS011;25462;51.164;17.100;2023-01-10T18:55:20;13.40;;;8.60;;
39782;SDS011;25462;51.164;17.100;2023-01-10T19:00:27;14.50;;;8.60;;
39782;SDS011;25462;51.164;17.100;2023-01-10T19:05:33;11.50;;;7.20;;
39782;SDS011;25462;51.164;17.100;2023-01-10T19:10:41;11.70;;;7.10;;
39782;SDS011;25462;51.164;17.100;2023-01-10T19:21:34;12.30;;;6.50;;
39782;SDS011;25462;51.164;17.100;2023-01-10T19:26:46;11.80;;;6.70;;
39782;SDS011;25462;51.164;17.100;2023-01-10T19:31:52;19.10;;;8.30;;
39782;SDS011;25462;51.164;17.100;2023-01-10T19:36:58;11.50;;;7.00;;
39782;SDS011;25462;51.164;17.100;2023-01-10T19:42:06;11.80;;;6.90;;
39782;SDS011;25462;51.164;17.100;2023-01-10T19:47:11;10.60;;;6.40;;
39782;SDS011;25462;51.164;17.100;2023-01-10T19:52:15;13.00;;;7.10;;
39782;SDS011;25462;51.164;17.100;2023-01-10T19:57:23;15.20;;;7.40;;
39782;SDS011;25462;51.164;17.100;2023-01-10T20:02:28;13.50;;;7.30;;
39782;SDS011;25462;51.164;17.100;2023-01-10T20:07:33;15.60;;;7.20;;
39782;SDS011;25462;51.164;17.100;2023-01-10T20:12:37;18.70;;;8.60;;
39782;SDS011;25462;51.164;17.100;2023-01-10T20:17:44;14.50;;;7.60;;
39782;SDS011;25462;51.164;17.100;2023-01-10T20:22:52;16.00;;;8.50;;
39782;SDS011;25462;51.164;17.100;2023-01-10T20:27:57;14.50;;;7.60;;
39782;SDS011;25462;51.164;17.100;2023-01-10T20:33:01;16.30;;;7.90;;
39782;SDS011;25462;51.164;17.100;2023-01-10T20:38:07;16.10;;;8.70;;
39782;SDS011;25462;51.164;17.100;2023-01-10T20:43:14;17.30;;;8.10;;
39782;SDS011;25462;51.164;17.100;2023-01-10T20:48:22;18.50;;;8.80;;
39782;SDS011;25462;51.164;17.100;2023-01-10T20:53:27;16.50;;;7.80;;
39782;SDS011;25462;51.164;17.100;2023-01-10T20:58:32;16.70;;;8.50;;
39782;SDS011;25462;51.164;17.100;2023-01-10T21:03:37;17.40;;;8.40;;
39782;SDS011;25462;51.164;17.100;2023-01-10T21:08:47;17.20;;;9.40;;
39782;SDS011;25462;51.164;17.100;2023-01-10T21:13:51;16.80;;;8.40;;
39782;SDS011;25462;51.164;17.100;2023-01-10T21:18:55;19.60;;;10.00;;
39782;SDS011;25462;51.164;17.100;2023-01-10T21:24:03;21.90;;;9.10;;
39782;SDS011;25462;51.164;17.100;2023-01-10T21:29:07;16.50;;;9.00;;
39782;SDS011;25462;51.164;17.100;2023-01-10T21:34:14;19.50;;;10.30;;
39782;SDS011;25462;51.164;17.100;2023-01-10T21:39:18;15.30;;;9.70;;
39782;SDS011;25462;51.164;17.100;2023-01-10T21:44:23;15.80;;;9.90;;
39782;SDS011;25462;51.164;17.100;2023-01-10T21:49:29;23.20;;;12.40;;
39782;SDS011;25462;51.164;17.100;2023-01-10T21:54:36;17.90;;;10.50;;
39782;SDS011;25462;51.164;17.100;2023-01-10T21:59:54;24.10;;;12.60;;
39782;SDS011;25462;51.164;17.100;2023-01-10T22:04:57;22.70;;;13.00;;
39782;SDS011;25462;51.164;17.100;2023-01-10T22:10:01;26.50;;;13.50;;
39782;SDS011;25462;51.164;17.100;2023-01-10T22:15:10;28.50;;;12.60;;
39782;SDS011;25462;51.164;17.100;2023-01-10T22:20:14;27.00;;;13.60;;
39782;SDS011;25462;51.164;17.100;2023-01-10T22:25:19;34.00;;;15.80;;
39782;SDS011;25462;51.164;17.100;2023-01-10T22:30:24;33.60;;;18.90;;
39782;SDS011;25462;51.164;17.100;2023-01-10T22:35:28;53.30;;;29.60;;
39782;SDS011;25462;51.164;17.100;2023-01-10T22:40:33;38.70;;;20.70;;
39782;SDS011;25462;51.164;17.100;2023-01-10T22:45:40;46.40;;;25.60;;
39782;SDS011;25462;51.164;17.100;2023-01-10T22:50:47;27.90;;;15.90;;
39782;SDS011;25462;51.164;17.100;2023-01-10T22:55:53;43.20;;;20.10;;
39782;SDS011;25462;51.164;17.100;2023-01-10T23:01:02;44.00;;;20.60;;
39782;SDS011;25462;51.164;17.100;2023-01-10T23:06:07;49.50;;;27.60;;
39782;SDS011;25462;51.164;17.100;2023-01-10T23:11:14;79.60;;;42.60;;
39782;SDS011;25462;51.164;17.100;2023-01-10T23:16:21;34.40;;;21.50;;
39782;SDS011;25462;51.164;17.100;2023-01-10T23:21:31;40.60;;;21.60;;
39782;SDS011;25462;51.164;17.100;2023-01-10T23:26:35;36.30;;;17.70;;
39782;SDS011;25462;51.164;17.100;2023-01-10T23:31:38;30.50;;;18.40;;
39782;SDS011;25462;51.164;17.100;2023-01-10T23:36:42;23.60;;;13.70;;
39782;SDS011;25462;51.164;17.100;2023-01-10T23:41:46;29.00;;;15.80;;
39782;SDS011;25462;51.164;17.100;2023-01-10T23:46:50;31.70;;;17.00;;
39782;SDS011;25462;51.164;17.100;2023-01-10T23:51:53;29.60;;;17.70;;
39782;SDS011;25462;51.164;17.100;2023-01-10T23:56:58;29.90;;;17.40;;
